Aviation Digital Data Service (ADDS)

Output produced by TAFs form (2107 UTC 08 February 2016)
found at http://www.aviationweather.gov/adds/tafs/
 
KRIC 081739Z 0818/0918 14003KT P6SM BKN250 
     FM082200 14006KT P6SM OVC090 
     FM090100 12005KT 5SM -RA BR SCT012 BKN020 
     FM090500 22005KT P6SM BKN015 
     FM091100 28008KT P6SM SCT015 BKN080 
     FM091600 27007KT P6SM BKN035